Malmstrom Air Force Base, MT

1:11 AM MDT on September 20, 2014 (GMT -0600)
Malmstrom AFB | Change Station
CLOSE
Current Station
Airport
Location: Malmstrom AFB,
Elevation: 3527 ft
Nearby Weather Stations

Elev 3527 ft 47.50 °N, 111.19 °W | Updated 15 minutes ago

Partly Cloudy
Partly Cloudy
54 °F
Feels Like 54 °F
N
13
Wind Variable Wind from SW

Today
High -- | Low -- °F
--% Chance of Precip.
Yesterday
High -- | Low -- °F
Precip. -- in
7:08 AM 7:26 PM
Waning Crescent, 14% visible
Pressure 30.05 in
Visibility 10.0 miles
Clouds Few 300 ft
Dew Point 43 °F
Humidity 66%
Rainfall 0.00 in
Snow Depth Not available.
UV 0 out of 12
Pollen 6.90 out of 12
Air Quality Not available.
Flu Activity Not available.
METAR KGFA 200656Z AUTO 23011KT 10SM FEW003 12/06 A3007 RMK AO2 SLP175 T01220061

More Conditions Fewer Conditions

Pressure 30.05 in
Visibility 10.0 miles
Clouds Few 300 ft
Dew Point 43 °F
Humidity 66%
Rainfall 0.00 in
Snow Depth Not available.
UV 0 out of 12
Pollen 6.90 out of 12
Air Quality Not available.
Flu Activity Not available.
METAR KGFA 200656Z AUTO 23011KT 10SM FEW003 12/06 A3007 RMK AO2 SLP175 T01220061

More Conditions Fewer Conditions

10-Day Weather Forecast

Almanac

Astronomy

Sep. 20, 2014 Rise Set
Actual Time 7:08 AM MDT 7:26 PM MDT
Civil Twilight 6:38 AM MDT 7:57 PM MDT
Nautical Twilight 6:01 AM MDT 8:33 PM MDT
Astronomical Twilight 5:24 AM MDT 9:10 PM MDT
Moon 3:40 AM MDT 5:41 PM MDT
Length of Visible Light 13h 18m
Length of Day
12h 17m
Tomorrow will be 3m 24s shorter.
Waning Crescent, 14% of the Moon is Illuminated
Today
Waning Crescent
Sep 24
New
Oct 1
First Quarter
Oct 8
Full
Oct 15
Last Quarter

Today's Extremes

State Highs State Lows

Community

WunderPhotos

Upload Photos

1,754,792 photos uploaded!

WunderBlogs® & News

Nearby

Snow Depth

Station Depth Elevation
Bloody Dick 0 in 7550 ft
Daly Creek 0 in 5780 ft
Calvert Creek 0 in 6430 ft
Placer Basin 0 in 8830 ft
Twelvemile Creek 0 in 5600 ft

Earthquake Activity

City Distance Mag. Time & Date
No recent earthquake activity has been reported nearby.
Minimum magnitude displayed is 2.5.

Coastal Water Temperatures

Place Temperature
No Stations Reporting

Nearby Weather Stations